createdAt,value
2023-04-15T00:02:48.647Z,84.54
2023-04-15T00:07:54.864Z,84.16
2023-04-15T00:13:00.395Z,84.33
2023-04-15T00:18:05.918Z,84.14
2023-04-15T00:23:11.909Z,83.94
2023-04-15T00:28:17.816Z,84.02
2023-04-15T00:33:24.072Z,84.02
2023-04-15T00:38:30.593Z,83.78
2023-04-15T00:43:36.662Z,83.78
2023-04-15T00:48:43.080Z,83.83
2023-04-15T00:53:48.669Z,83.54
2023-04-15T00:58:54.186Z,83.57
2023-04-15T01:03:59.865Z,83.69
2023-04-15T01:09:05.637Z,83.35
2023-04-15T01:14:12.101Z,83.55
2023-04-15T01:19:18.696Z,83.33
2023-04-15T01:24:25.333Z,83.51
2023-04-15T01:29:33.367Z,83.58
2023-04-15T01:34:38.903Z,83.67
2023-04-15T01:39:44.855Z,83.69
2023-04-15T01:44:50.310Z,83.59
2023-04-15T01:49:56.388Z,83.75
2023-04-15T01:55:02.164Z,83.73
2023-04-15T02:00:09.096Z,83.35
2023-04-15T02:05:20.459Z,83.16
2023-04-15T02:10:26.359Z,83.52
2023-04-15T02:15:31.934Z,83.70
2023-04-15T02:20:38.131Z,83.70
2023-04-15T02:25:43.570Z,83.38
2023-04-15T02:30:53.231Z,83.64
2023-04-15T02:35:59.492Z,83.67
2023-04-15T02:41:05.923Z,84.02
2023-04-15T02:46:14.974Z,84.07
2023-04-15T02:51:23.037Z,83.91
2023-04-15T02:56:28.858Z,83.69
2023-04-15T03:02:29.064Z,83.66
2023-04-15T03:07:56.320Z,83.69
2023-04-15T03:13:02.169Z,83.69
2023-04-15T03:18:07.902Z,83.91
2023-04-15T03:23:13.656Z,83.87
2023-04-15T03:28:19.334Z,83.80
2023-04-15T03:33:26.584Z,84.05
2023-04-15T03:38:32.641Z,83.95
2023-04-15T03:43:38.170Z,83.52
2023-04-15T03:48:43.676Z,83.75
2023-04-15T03:53:49.352Z,83.72
2023-04-15T03:58:54.930Z,83.59
2023-04-15T04:04:00.593Z,83.62
2023-04-15T04:09:06.243Z,83.51
2023-04-15T04:14:11.756Z,83.76
2023-04-15T04:19:18.836Z,83.93
2023-04-15T04:24:24.356Z,83.98
2023-04-15T04:29:30.126Z,84.28
2023-04-15T04:34:35.712Z,84.28
2023-04-15T04:39:41.286Z,84.13
2023-04-15T04:44:47.296Z,84.19
2023-04-15T04:49:52.793Z,84.49
2023-04-15T04:54:58.480Z,84.24
2023-04-15T05:00:05.229Z,84.58
2023-04-15T05:05:11.902Z,84.44
2023-04-15T05:10:18.453Z,84.80
2023-04-15T05:15:24.210Z,84.43
2023-04-15T05:20:30.035Z,84.98
2023-04-15T05:25:35.622Z,84.81
2023-04-15T05:30:41.990Z,85.06
2023-04-15T05:35:47.520Z,85.13
2023-04-15T05:40:53.036Z,85.01
2023-04-15T05:45:58.569Z,85.04
2023-04-15T05:51:04.166Z,84.98
2023-04-15T05:56:09.845Z,85.13
2023-04-15T06:01:15.539Z,85.05
2023-04-15T06:06:21.047Z,85.16
2023-04-15T06:11:27.505Z,84.85
2023-04-15T06:16:32.996Z,84.54
2023-04-15T06:21:38.988Z,84.14
2023-04-15T06:26:44.789Z,84.04
2023-04-15T06:31:50.699Z,83.84
2023-04-15T06:36:56.303Z,83.61
2023-04-15T06:42:02.143Z,83.41
2023-04-15T06:47:07.652Z,83.87
2023-04-15T06:52:13.192Z,83.24
2023-04-15T06:57:18.930Z,83.08
2023-04-15T07:02:25.030Z,82.37
2023-04-15T07:07:30.669Z,82.42
2023-04-15T07:12:36.677Z,82.13
2023-04-15T07:17:44.885Z,81.08
2023-04-15T07:22:50.473Z,81.79
2023-04-15T07:27:59.820Z,81.57
2023-04-15T07:33:08.315Z,81.23
2023-04-15T07:38:15.731Z,80.82
2023-04-15T07:43:24.821Z,80.64
2023-04-15T07:48:37.576Z,80.39
2023-04-15T07:53:46.649Z,78.76
2023-04-15T07:58:56.894Z,78.03
2023-04-15T08:04:03.342Z,77.52
2023-04-15T08:09:10.095Z,76.90
2023-04-15T08:14:17.492Z,76.78
2023-04-15T08:19:25.774Z,76.31
2023-04-15T08:24:35.762Z,76.65
2023-04-15T08:29:42.680Z,75.44
2023-04-15T08:34:49.009Z,75.57
2023-04-15T08:39:54.467Z,75.11
2023-04-15T08:45:02.071Z,74.91
2023-04-15T08:50:11.877Z,74.00
2023-04-15T08:55:18.160Z,73.78
2023-04-15T09:00:24.482Z,73.79
2023-04-15T09:05:33.778Z,73.54
2023-04-15T09:10:40.130Z,73.20
2023-04-15T09:15:45.721Z,73.18
2023-04-15T09:20:54.386Z,72.94
2023-04-15T09:26:00.032Z,72.82
2023-04-15T09:31:05.641Z,72.30
2023-04-15T09:36:11.488Z,72.52
2023-04-15T09:41:19.986Z,71.90
2023-04-15T09:46:43.079Z,72.02
2023-04-15T09:52:01.670Z,72.14
2023-04-15T09:56:56.807Z,71.84
2023-04-15T10:02:04.265Z,71.85
2023-04-15T10:07:14.722Z,71.49
2023-04-15T10:12:21.427Z,71.76
2023-04-15T10:17:31.706Z,71.55
2023-04-15T10:22:38.888Z,71.45
2023-04-15T10:27:44.415Z,71.40
2023-04-15T10:32:51.098Z,71.44
2023-04-15T10:37:56.685Z,71.52
2023-04-15T10:43:05.498Z,71.67
2023-04-15T10:48:11.675Z,71.75
2023-04-15T10:53:21.799Z,71.91
2023-04-15T10:58:29.135Z,71.73
2023-04-15T11:03:40.611Z,71.76
2023-04-15T11:09:02.106Z,71.78
2023-04-15T11:14:09.142Z,71.53
2023-04-15T11:19:14.656Z,71.39
2023-04-15T11:24:29.187Z,71.48
2023-04-15T11:29:34.773Z,71.87
2023-04-15T11:34:40.277Z,72.14
2023-04-15T11:39:45.856Z,71.28
2023-04-15T11:44:51.778Z,72.10
2023-04-15T11:49:57.574Z,71.88
2023-04-15T11:55:06.201Z,72.71
2023-04-15T12:00:12.566Z,72.45
2023-04-15T12:05:18.228Z,72.83
2023-04-15T12:10:28.252Z,72.88
2023-04-15T12:15:33.716Z,72.89
2023-04-15T12:20:47.370Z,73.25
2023-04-15T12:25:55.658Z,73.35
2023-04-15T12:31:03.926Z,73.60
2023-04-15T12:36:09.707Z,73.34
2023-04-15T12:41:15.443Z,73.54
2023-04-15T12:46:21.827Z,73.67
2023-04-15T12:51:27.961Z,73.68
2023-04-15T12:56:33.536Z,73.61
2023-04-15T13:01:39.084Z,73.22
2023-04-15T13:06:45.193Z,73.36
2023-04-15T13:11:51.497Z,72.82
2023-04-15T13:16:57.220Z,72.29
2023-04-15T13:22:02.986Z,72.14
2023-04-15T13:27:08.439Z,72.01
2023-04-15T13:32:14.128Z,71.80
2023-04-15T13:37:19.639Z,71.59
2023-04-15T13:42:26.023Z,71.74
2023-04-15T13:47:31.642Z,71.21
2023-04-15T13:52:37.377Z,71.56
2023-04-15T13:57:42.968Z,71.75
2023-04-15T14:02:48.668Z,71.79
2023-04-15T14:07:54.544Z,71.46
2023-04-15T14:13:00.054Z,71.58
2023-04-15T14:18:05.680Z,71.21
2023-04-15T14:23:11.322Z,71.41
2023-04-15T14:28:17.109Z,71.29
2023-04-15T14:33:23.189Z,71.61
2023-04-15T14:38:28.853Z,71.85
2023-04-15T14:43:34.548Z,71.73
2023-04-15T14:48:40.363Z,71.83
2023-04-15T14:53:46.255Z,72.27
2023-04-15T14:58:53.308Z,72.17
2023-04-15T15:03:58.949Z,72.41
2023-04-15T15:09:06.377Z,72.52
2023-04-15T15:14:12.158Z,72.74
2023-04-15T15:19:17.734Z,72.72
2023-04-15T15:24:23.266Z,72.49
2023-04-15T15:29:28.861Z,72.55
2023-04-15T15:34:34.365Z,72.52
2023-04-15T15:39:39.889Z,72.88
2023-04-15T15:44:45.494Z,73.15
2023-04-15T15:49:51.312Z,73.58
2023-04-15T15:54:57.295Z,74.04
2023-04-15T16:05:09.830Z,74.31
2023-04-15T16:10:15.361Z,74.38
2023-04-15T16:15:20.955Z,74.48
2023-04-15T16:20:26.695Z,74.46
2023-04-15T16:25:32.213Z,74.26
2023-04-15T16:30:38.834Z,75.01
2023-04-15T16:35:44.344Z,75.35
2023-04-15T16:40:49.946Z,75.44
2023-04-15T16:45:55.687Z,75.54
2023-04-15T16:51:01.568Z,76.16
2023-04-15T16:56:07.375Z,76.14
2023-04-15T17:01:12.903Z,76.59
2023-04-15T17:06:18.714Z,76.95
2023-04-15T17:11:24.315Z,76.83
2023-04-15T17:16:29.895Z,77.20
2023-04-15T17:21:36.240Z,77.45
2023-04-15T17:26:41.804Z,77.46
2023-04-15T17:31:47.649Z,77.62
2023-04-15T17:36:53.741Z,77.87
2023-04-15T17:41:59.395Z,78.10
2023-04-15T17:47:05.070Z,78.55
2023-04-15T17:52:10.618Z,78.80
2023-04-15T17:57:17.218Z,80.59
2023-04-15T18:02:22.995Z,79.43
2023-04-15T18:07:28.818Z,79.49
2023-04-15T18:12:34.284Z,79.56
2023-04-15T18:17:39.841Z,80.05
2023-04-15T18:22:45.485Z,80.33
2023-04-15T18:27:51.146Z,80.41
2023-04-15T18:32:56.769Z,80.67
2023-04-15T18:38:02.822Z,81.00
2023-04-15T18:43:09.641Z,81.09
2023-04-15T18:48:16.070Z,81.64
2023-04-15T18:53:22.254Z,81.54
2023-04-15T18:58:28.624Z,81.28
2023-04-15T19:03:35.825Z,81.12
2023-04-15T19:08:41.465Z,81.71
2023-04-15T19:13:47.091Z,81.74
2023-04-15T19:18:52.638Z,82.04
2023-04-15T19:23:59.925Z,82.20
2023-04-15T19:29:05.668Z,82.05
2023-04-15T19:34:11.591Z,82.38
2023-04-15T19:39:17.298Z,82.16
2023-04-15T19:44:24.096Z,82.24
2023-04-15T19:49:29.697Z,82.57
2023-04-15T19:54:35.309Z,82.42
2023-04-15T19:59:42.242Z,82.46
2023-04-15T20:04:47.852Z,82.56
2023-04-15T20:09:53.788Z,82.51
2023-04-15T20:14:59.273Z,82.75
2023-04-15T20:20:06.689Z,82.72
2023-04-15T20:25:12.228Z,82.58
2023-04-15T20:30:17.674Z,82.96
2023-04-15T20:35:25.173Z,82.80
2023-04-15T20:40:32.779Z,83.19
2023-04-15T20:45:38.398Z,83.20
2023-04-15T20:50:43.858Z,83.46
2023-04-15T20:55:49.487Z,83.13
2023-04-15T21:00:55.451Z,83.47
2023-04-15T21:06:01.224Z,83.45
2023-04-15T21:11:06.755Z,83.29
2023-04-15T21:16:12.318Z,83.56
2023-04-15T21:21:18.095Z,83.64
2023-04-15T21:26:23.612Z,83.71
2023-04-15T21:31:29.138Z,83.69
2023-04-15T21:36:35.009Z,83.74
2023-04-15T21:41:40.599Z,83.79
2023-04-15T21:46:46.482Z,83.45
2023-04-15T21:51:52.162Z,83.67
2023-04-15T21:56:58.004Z,83.45
2023-04-15T22:02:03.640Z,83.79
2023-04-15T22:07:09.391Z,83.68
2023-04-15T22:12:14.930Z,83.81
2023-04-15T22:17:20.527Z,83.78
2023-04-15T22:22:26.689Z,83.84
2023-04-15T22:27:33.655Z,83.94
2023-04-15T22:32:39.323Z,83.82
2023-04-15T22:37:44.902Z,83.84
2023-04-15T22:42:50.489Z,83.82
2023-04-15T22:47:56.983Z,83.90
2023-04-15T22:53:02.617Z,83.91
2023-04-15T22:58:08.112Z,83.81
2023-04-15T23:03:14.009Z,84.18
2023-04-15T23:08:20.225Z,84.27
2023-04-15T23:13:25.741Z,84.25
2023-04-15T23:18:31.759Z,84.48
2023-04-15T23:23:37.205Z,84.05
2023-04-15T23:28:42.930Z,84.05
2023-04-15T23:33:48.576Z,84.01
2023-04-15T23:38:54.165Z,84.40
2023-04-15T23:43:59.608Z,84.08
2023-04-15T23:49:05.061Z,84.16
2023-04-15T23:54:10.644Z,84.36
2023-04-15T23:59:16.328Z,84.64
